createdAt,value
2022-11-24T00:01:17.823Z,3.47
2022-11-24T00:03:52.350Z,4.55
2022-11-24T00:06:19.226Z,2.63
2022-11-24T00:08:46.950Z,3.03
2022-11-24T00:11:21.596Z,3.83
2022-11-24T00:13:50.786Z,3.95
2022-11-24T00:16:24.752Z,2.50
2022-11-24T00:18:53.990Z,3.63
2022-11-24T00:21:23.271Z,3.53
2022-11-24T00:23:51.167Z,4.28
2022-11-24T00:26:34.598Z,3.63
2022-11-24T00:29:05.753Z,4.10
2022-11-24T00:31:39.106Z,3.83
2022-11-24T00:34:11.859Z,4.47
2022-11-24T00:36:41.088Z,4.60
2022-11-24T00:39:12.397Z,4.78
2022-11-24T00:41:39.793Z,4.45
2022-11-24T00:44:08.251Z,3.15
2022-11-24T00:46:36.321Z,4.80
2022-11-24T00:49:03.704Z,3.70
2022-11-24T00:51:30.858Z,3.60
2022-11-24T00:53:59.174Z,4.95
2022-11-24T00:56:27.171Z,3.70
2022-11-24T00:58:55.279Z,4.00
2022-11-24T01:01:24.833Z,4.28
2022-11-24T01:03:55.353Z,5.15
2022-11-24T01:06:25.049Z,4.55
2022-11-24T01:08:52.686Z,4.32
2022-11-24T01:11:24.041Z,4.18
2022-11-24T01:13:57.730Z,5.07
2022-11-24T01:16:35.168Z,4.47
2022-11-24T01:19:03.950Z,4.40
2022-11-24T01:21:30.901Z,4.72
2022-11-24T01:23:58.809Z,4.93
2022-11-24T01:26:25.619Z,5.43
2022-11-24T01:28:54.835Z,5.00
2022-11-24T01:31:22.582Z,4.80
2022-11-24T01:33:49.536Z,4.78
2022-11-24T01:36:16.815Z,5.50
2022-11-24T01:38:43.684Z,3.55
2022-11-24T01:41:24.554Z,4.60
2022-11-24T01:43:54.111Z,3.50
2022-11-24T01:46:42.116Z,4.70
2022-11-24T01:49:09.132Z,4.40
2022-11-24T01:51:57.933Z,5.57
2022-11-24T01:54:32.918Z,4.97
2022-11-24T01:57:16.741Z,4.00
2022-11-24T01:59:46.552Z,4.25
2022-11-24T02:04:45.170Z,4.13
2022-11-24T02:07:13.859Z,3.35
2022-11-24T02:09:56.515Z,6.55
2022-11-24T02:12:26.689Z,4.68
2022-11-24T02:14:55.988Z,4.43
2022-11-24T02:17:23.178Z,4.78
2022-11-24T02:19:57.457Z,5.00
2022-11-24T02:22:55.022Z,4.68
2022-11-24T02:25:26.120Z,3.83
2022-11-24T02:27:55.971Z,5.18
2022-11-24T02:30:22.974Z,3.55
2022-11-24T02:32:52.395Z,4.38
2022-11-24T02:35:19.978Z,5.95
2022-11-24T02:37:46.874Z,4.10
2022-11-24T02:40:24.776Z,4.43
2022-11-24T02:42:55.299Z,4.10
2022-11-24T02:45:23.544Z,5.03
2022-11-24T02:47:50.511Z,5.63
2022-11-24T02:50:17.495Z,5.07
2022-11-24T02:52:45.372Z,5.03
2022-11-24T02:55:12.247Z,4.53
2022-11-24T02:57:40.099Z,3.20
2022-11-24T03:00:07.761Z,4.40
2022-11-24T03:02:34.746Z,4.03
2022-11-24T03:05:01.806Z,4.10
2022-11-24T03:07:28.863Z,3.80
2022-11-24T03:09:55.813Z,3.70
2022-11-24T03:12:23.695Z,4.50
2022-11-24T03:14:50.531Z,3.13
2022-11-24T03:17:18.827Z,3.30
2022-11-24T03:19:45.965Z,2.17
2022-11-24T03:22:14.591Z,2.63
2022-11-24T03:24:41.683Z,2.53
2022-11-24T03:27:09.552Z,2.72
2022-11-24T03:29:36.418Z,2.40
2022-11-24T03:32:05.127Z,1.52
2022-11-24T03:34:32.226Z,1.40
2022-11-24T03:37:01.335Z,1.35
2022-11-24T03:39:29.164Z,2.40
2022-11-24T03:41:55.986Z,1.50
2022-11-24T03:44:23.348Z,2.03
2022-11-24T03:46:52.026Z,1.77
2022-11-24T03:49:18.804Z,1.50
2022-11-24T03:51:46.826Z,1.83
2022-11-24T03:54:13.707Z,1.70
2022-11-24T03:56:40.626Z,1.50
2022-11-24T03:59:07.573Z,1.88
2022-11-24T04:01:34.963Z,1.80
2022-11-24T04:04:01.855Z,2.08
2022-11-24T04:06:29.696Z,1.73
2022-11-24T04:08:56.768Z,1.73
2022-11-24T04:11:42.714Z,1.67
2022-11-24T04:14:13.696Z,1.80
2022-11-24T04:16:42.005Z,1.23
2022-11-24T04:19:09.245Z,1.15
2022-11-24T04:21:37.153Z,1.38
2022-11-24T04:24:07.095Z,1.13
2022-11-24T04:26:35.030Z,1.20
2022-11-24T04:29:01.865Z,1.02
2022-11-24T04:31:31.851Z,0.98
2022-11-24T04:33:59.173Z,1.23
2022-11-24T04:36:26.172Z,0.70
2022-11-24T04:39:23.848Z,0.90
2022-11-24T04:41:40.979Z,1.08
2022-11-24T04:44:07.778Z,0.90
2022-11-24T04:46:36.257Z,0.80
2022-11-24T04:49:03.093Z,0.63
2022-11-24T04:51:29.992Z,0.73
2022-11-24T04:53:57.282Z,0.82
2022-11-24T04:56:24.346Z,0.95
2022-11-24T04:58:51.138Z,1.20
2022-11-24T05:01:19.038Z,0.57
2022-11-24T05:03:45.937Z,0.52
2022-11-24T05:06:12.871Z,1.15
2022-11-24T05:08:39.680Z,0.73
2022-11-24T05:11:07.420Z,0.70
2022-11-24T05:13:34.492Z,0.77
2022-11-24T05:16:26.925Z,0.77
2022-11-24T05:18:55.372Z,0.50
2022-11-24T05:21:22.198Z,0.90
2022-11-24T05:23:49.156Z,0.75
2022-11-24T05:26:19.135Z,0.77
2022-11-24T05:28:46.106Z,0.68
2022-11-24T05:31:12.874Z,0.85
2022-11-24T05:33:40.060Z,1.33
2022-11-24T05:36:30.215Z,0.60
2022-11-24T05:38:58.124Z,1.08
2022-11-24T05:41:26.382Z,1.42
2022-11-24T05:43:53.254Z,1.13
2022-11-24T05:46:22.302Z,1.60
2022-11-24T05:48:49.496Z,1.35
2022-11-24T05:51:18.577Z,1.52
2022-11-24T05:53:45.522Z,1.83
2022-11-24T05:56:12.339Z,1.90
2022-11-24T05:58:39.210Z,1.60
2022-11-24T06:01:07.268Z,2.10
2022-11-24T06:03:38.040Z,1.88
2022-11-24T06:06:07.370Z,1.98
2022-11-24T06:08:36.217Z,2.42
2022-11-24T06:11:17.739Z,1.90
2022-11-24T06:13:46.401Z,2.40
2022-11-24T06:16:13.683Z,2.10
2022-11-24T06:18:40.684Z,2.13
2022-11-24T06:21:11.994Z,2.55
2022-11-24T06:23:41.241Z,2.30
2022-11-24T06:26:09.214Z,2.63
2022-11-24T06:28:36.409Z,2.47
2022-11-24T06:31:05.058Z,2.22
2022-11-24T06:33:36.948Z,2.70
2022-11-24T06:36:06.228Z,2.95
2022-11-24T06:38:35.940Z,2.63
2022-11-24T06:41:07.919Z,2.42
2022-11-24T06:43:35.948Z,2.25
2022-11-24T06:46:03.971Z,2.65
2022-11-24T06:48:32.621Z,1.90
2022-11-24T06:51:01.092Z,3.05
2022-11-24T06:53:32.410Z,2.50
2022-11-24T06:56:02.871Z,2.58
2022-11-24T06:58:30.995Z,1.75
2022-11-24T07:01:01.000Z,2.70
2022-11-24T07:03:28.985Z,2.15
2022-11-24T07:05:57.918Z,2.50
2022-11-24T07:08:25.828Z,2.90
2022-11-24T07:10:55.219Z,3.00
2022-11-24T07:13:22.359Z,1.75
2022-11-24T07:16:45.766Z,2.45
2022-11-24T07:19:13.330Z,2.58
2022-11-24T07:21:40.160Z,7.78
2022-11-24T07:24:08.904Z,4.75
2022-11-24T07:26:37.892Z,2.25
2022-11-24T07:29:05.472Z,2.63
2022-11-24T07:31:32.371Z,2.10
2022-11-24T07:34:00.286Z,2.28
2022-11-24T07:36:27.286Z,1.85
2022-11-24T07:38:55.179Z,2.47
2022-11-24T07:41:23.132Z,2.42
2022-11-24T07:43:56.004Z,1.65
2022-11-24T07:46:24.115Z,2.10
2022-11-24T07:48:51.438Z,2.30
2022-11-24T07:51:19.404Z,1.55
2022-11-24T07:53:48.379Z,2.45
2022-11-24T07:56:15.406Z,2.65
2022-11-24T07:58:45.974Z,1.52
2022-11-24T08:01:18.205Z,1.70
2022-11-24T08:03:47.895Z,1.60
2022-11-24T08:06:27.363Z,2.22
2022-11-24T08:08:58.088Z,2.60
2022-11-24T08:11:27.337Z,2.88
2022-11-24T08:13:54.200Z,1.70
2022-11-24T08:16:22.757Z,2.20
2022-11-24T08:18:51.586Z,1.67
2022-11-24T08:21:18.850Z,2.38
2022-11-24T08:23:47.671Z,2.63
2022-11-24T08:26:18.968Z,2.55
2022-11-24T08:28:47.237Z,2.35
2022-11-24T08:31:18.768Z,2.17
2022-11-24T08:33:46.772Z,2.00
2022-11-24T08:36:16.876Z,3.53
2022-11-24T08:38:44.888Z,2.90
2022-11-24T08:41:17.259Z,2.67
2022-11-24T08:43:44.301Z,2.13
2022-11-24T08:46:13.685Z,2.67
2022-11-24T08:48:41.676Z,2.25
2022-11-24T08:51:16.108Z,2.33
2022-11-24T08:53:43.872Z,2.28
2022-11-24T08:56:13.413Z,2.67
2022-11-24T08:58:41.898Z,1.27
2022-11-24T09:01:18.318Z,2.72
2022-11-24T09:03:50.725Z,2.55
2022-11-24T09:06:25.592Z,2.65
2022-11-24T09:08:54.566Z,1.83
2022-11-24T09:11:21.881Z,2.88
2022-11-24T09:13:48.919Z,2.35
2022-11-24T09:16:21.621Z,3.60
2022-11-24T09:18:54.585Z,2.55
2022-11-24T09:21:22.328Z,2.72
2022-11-24T09:23:53.238Z,2.33
2022-11-24T09:26:27.920Z,2.88
2022-11-24T09:28:56.384Z,3.00
2022-11-24T09:31:30.029Z,2.38
2022-11-24T09:33:57.930Z,1.73
2022-11-24T09:36:26.311Z,2.42
2022-11-24T09:38:53.686Z,2.83
2022-11-24T09:41:39.895Z,3.97
2022-11-24T09:44:27.969Z,1.67
2022-11-24T09:47:16.837Z,2.67
2022-11-24T09:50:21.672Z,2.90
2022-11-24T09:53:01.547Z,2.70
2022-11-24T09:55:52.211Z,3.33
2022-11-24T09:58:31.238Z,2.70
2022-11-24T10:01:04.461Z,2.43
2022-11-24T10:03:37.632Z,2.33
2022-11-24T10:06:16.864Z,3.10
2022-11-24T10:08:58.875Z,3.17
2022-11-24T10:11:47.165Z,2.53
2022-11-24T10:14:41.250Z,2.15
2022-11-24T10:17:36.485Z,2.78
2022-11-24T10:20:13.400Z,2.33
2022-11-24T10:23:01.435Z,2.15
2022-11-24T10:25:59.669Z,2.58
2022-11-24T10:28:38.124Z,2.72
2022-11-24T10:31:31.596Z,3.08
2022-11-24T10:34:09.781Z,2.63
2022-11-24T10:36:48.303Z,2.97
2022-11-24T10:39:29.614Z,3.15
2022-11-24T10:42:19.675Z,3.00
2022-11-24T10:44:46.630Z,2.85
2022-11-24T10:47:22.822Z,2.60
2022-11-24T10:50:12.337Z,3.05
2022-11-24T10:52:52.819Z,2.83
2022-11-24T10:55:21.599Z,1.90
2022-11-24T10:57:48.857Z,2.95
2022-11-24T11:00:18.890Z,3.10
2022-11-24T11:02:47.845Z,2.50
2022-11-24T11:05:42.223Z,3.17
2022-11-24T11:08:24.737Z,3.65
2022-11-24T11:11:15.129Z,3.15
2022-11-24T11:14:03.118Z,2.60
2022-11-24T11:16:38.639Z,2.97
2022-11-24T11:22:29.772Z,2.50
2022-11-24T11:25:27.971Z,4.03
2022-11-24T11:28:18.875Z,2.47
2022-11-24T11:31:17.976Z,2.90
2022-11-24T11:34:20.860Z,2.75
2022-11-24T11:36:54.801Z,2.28
2022-11-24T11:39:21.606Z,2.47
2022-11-24T11:41:52.076Z,3.13
2022-11-24T11:44:38.525Z,2.53
2022-11-24T11:47:27.025Z,2.35
2022-11-24T11:49:54.409Z,2.25
2022-11-24T11:52:33.142Z,2.55
2022-11-24T11:55:34.240Z,2.60
2022-11-24T11:58:18.097Z,2.72
2022-11-24T12:00:56.737Z,2.72
2022-11-24T12:03:39.901Z,2.80
2022-11-24T12:06:51.876Z,3.03
2022-11-24T12:09:48.317Z,2.47
2022-11-24T12:12:26.255Z,2.53
2022-11-24T12:15:10.984Z,2.65
2022-11-24T12:17:47.962Z,3.60
2022-11-24T12:20:37.455Z,3.10
2022-11-24T12:23:43.009Z,3.08
2022-11-24T12:26:37.434Z,1.83
2022-11-24T12:29:28.638Z,2.85
2022-11-24T12:32:04.459Z,3.10
2022-11-24T12:34:52.103Z,3.13
2022-11-24T12:37:43.812Z,2.28
2022-11-24T12:40:16.337Z,1.60
2022-11-24T12:42:55.520Z,2.92
2022-11-24T12:45:52.756Z,3.35
2022-11-24T12:48:23.693Z,2.17
2022-11-24T12:50:53.667Z,3.05
2022-11-24T12:53:32.792Z,3.13
2022-11-24T12:56:06.443Z,3.25
2022-11-24T12:58:43.188Z,2.92
2022-11-24T13:01:33.774Z,3.35
2022-11-24T13:04:21.929Z,2.22
2022-11-24T13:07:41.316Z,2.30
2022-11-24T13:13:18.256Z,4.28
2022-11-24T13:19:01.396Z,1.73
2022-11-24T13:21:45.612Z,2.67
2022-11-24T13:24:19.479Z,2.90
2022-11-24T13:27:24.729Z,2.58
2022-11-24T13:29:52.312Z,2.80
2022-11-24T13:32:19.140Z,3.15
2022-11-24T13:35:02.261Z,3.10
2022-11-24T13:37:35.395Z,3.45
2022-11-24T13:40:22.980Z,3.72
2022-11-24T13:42:56.371Z,2.67
2022-11-24T13:45:52.542Z,4.18
2022-11-24T13:48:19.571Z,3.15
2022-11-24T13:50:58.680Z,2.50
2022-11-24T13:53:33.576Z,3.60
2022-11-24T13:56:13.910Z,3.17
2022-11-24T13:58:46.495Z,3.95
2022-11-24T14:01:26.692Z,3.33
2022-11-24T14:04:30.529Z,2.72
2022-11-24T14:07:09.070Z,3.03
2022-11-24T14:09:51.240Z,3.20
2022-11-24T14:12:25.626Z,3.22
2022-11-24T14:14:57.151Z,3.38
2022-11-24T14:17:25.093Z,5.72
2022-11-24T14:19:55.544Z,5.13
2022-11-24T14:22:41.529Z,6.10
2022-11-24T14:25:24.275Z,5.60
2022-11-24T14:27:53.851Z,4.60
2022-11-24T14:30:24.006Z,6.78
2022-11-24T14:32:58.723Z,5.50
2022-11-24T14:35:34.374Z,3.30
2022-11-24T14:38:05.896Z,4.20
2022-11-24T14:40:43.339Z,3.67
2022-11-24T14:43:20.026Z,3.45
2022-11-24T14:46:02.418Z,3.63
2022-11-24T14:48:37.793Z,3.75
2022-11-24T14:51:18.156Z,4.15
2022-11-24T14:53:46.922Z,3.97
2022-11-24T14:56:36.728Z,4.35
2022-11-24T14:59:04.959Z,4.15
2022-11-24T15:01:35.274Z,3.40
2022-11-24T15:04:26.522Z,3.70
2022-11-24T15:07:06.025Z,4.22
2022-11-24T15:09:47.958Z,3.50
2022-11-24T15:12:34.449Z,3.97
2022-11-24T15:15:04.583Z,3.70
2022-11-24T15:17:31.859Z,3.42
2022-11-24T15:20:10.840Z,2.97
2022-11-24T15:22:40.803Z,3.10
2022-11-24T15:25:28.386Z,3.70
2022-11-24T15:27:55.657Z,2.83
2022-11-24T15:30:23.096Z,3.65
2022-11-24T15:32:52.850Z,3.58
2022-11-24T15:35:25.961Z,3.17
2022-11-24T15:37:55.485Z,2.80
2022-11-24T15:40:22.623Z,3.35
2022-11-24T15:42:55.301Z,3.03
2022-11-24T15:45:26.565Z,2.95
2022-11-24T15:47:53.538Z,3.65
2022-11-24T15:50:22.206Z,2.90
2022-11-24T15:52:49.276Z,3.50
2022-11-24T15:55:21.909Z,3.13
2022-11-24T16:00:23.706Z,2.38
2022-11-24T16:02:50.660Z,4.03
2022-11-24T16:05:18.364Z,4.30
2022-11-24T16:07:45.235Z,4.03
2022-11-24T16:10:29.454Z,4.20
2022-11-24T16:12:57.429Z,3.58
2022-11-24T16:15:24.649Z,4.30
2022-11-24T16:17:51.586Z,4.13
2022-11-24T16:20:18.839Z,3.15
2022-11-24T16:22:45.696Z,3.47
2022-11-24T16:25:13.217Z,3.53
2022-11-24T16:27:40.259Z,4.13
2022-11-24T16:30:08.504Z,3.75
2022-11-24T16:32:35.455Z,3.47
2022-11-24T16:35:04.038Z,4.90
2022-11-24T16:37:32.516Z,5.38
2022-11-24T16:40:01.508Z,5.85
2022-11-24T16:42:31.749Z,7.90
2022-11-24T16:44:58.700Z,4.43
2022-11-24T16:47:26.520Z,4.35
2022-11-24T16:49:54.478Z,4.95
2022-11-24T16:52:21.478Z,5.72
2022-11-24T16:54:49.364Z,3.67
2022-11-24T16:57:16.315Z,6.32
2022-11-24T16:59:43.538Z,5.30
2022-11-24T17:02:14.193Z,5.10
2022-11-24T17:04:41.288Z,5.35
2022-11-24T17:07:11.357Z,5.65
2022-11-24T17:10:37.018Z,6.55
2022-11-24T17:18:52.994Z,5.20
2022-11-24T17:21:26.239Z,5.38
2022-11-24T17:23:55.387Z,5.53
2022-11-24T17:26:22.597Z,4.65
2022-11-24T17:28:57.099Z,4.18
2022-11-24T17:31:28.115Z,4.68
2022-11-24T17:34:03.552Z,3.88
2022-11-24T17:36:33.103Z,4.90
2022-11-24T17:39:04.500Z,4.40
2022-11-24T17:41:33.283Z,4.07
2022-11-24T17:44:00.497Z,3.03
2022-11-24T17:46:29.202Z,5.90
2022-11-24T17:48:57.620Z,5.07
2022-11-24T17:51:26.357Z,5.38
2022-11-24T17:53:54.707Z,3.35
2022-11-24T17:56:24.257Z,3.40
2022-11-24T17:58:59.663Z,5.15
2022-11-24T18:01:30.117Z,4.47
2022-11-24T18:03:58.763Z,4.47
2022-11-24T18:06:28.761Z,4.28
2022-11-24T18:08:57.218Z,5.60
2022-11-24T18:11:32.177Z,4.65
2022-11-24T18:14:03.537Z,5.65
2022-11-24T18:16:34.157Z,4.60
2022-11-24T18:19:09.066Z,3.50
2022-11-24T18:21:41.613Z,3.35
2022-11-24T18:24:11.266Z,5.05
2022-11-24T18:26:39.424Z,3.92
2022-11-24T18:29:06.486Z,4.57
2022-11-24T18:31:35.535Z,4.45
2022-11-24T18:34:05.489Z,5.25
2022-11-24T18:36:34.309Z,4.80
2022-11-24T18:39:03.636Z,5.00
2022-11-24T18:41:30.782Z,4.10
2022-11-24T18:43:57.846Z,3.60
2022-11-24T18:46:25.157Z,4.82
2022-11-24T18:48:53.143Z,5.10
2022-11-24T18:51:20.284Z,4.88
2022-11-24T18:53:50.925Z,5.13
2022-11-24T18:56:17.858Z,4.78
2022-11-24T18:58:45.959Z,5.72
2022-11-24T19:01:22.157Z,4.88
2022-11-24T19:03:52.337Z,4.80
2022-11-24T19:06:23.885Z,4.82
2022-11-24T19:08:53.527Z,5.30
2022-11-24T19:11:23.939Z,4.65
2022-11-24T19:13:51.508Z,4.88
2022-11-24T19:16:20.371Z,4.57
2022-11-24T19:18:53.618Z,4.32
2022-11-24T19:21:21.972Z,3.55
2022-11-24T19:23:50.241Z,10.07
2022-11-24T19:26:17.391Z,3.70
2022-11-24T19:28:44.445Z,4.18
2022-11-24T19:31:13.163Z,4.25
2022-11-24T19:33:41.013Z,3.75
2022-11-24T19:36:12.919Z,3.75
2022-11-24T19:38:41.097Z,3.88
2022-11-24T19:41:13.895Z,3.97
2022-11-24T19:43:42.669Z,4.80
2022-11-24T19:46:12.296Z,4.43
2022-11-24T19:48:41.536Z,3.90
2022-11-24T19:51:13.168Z,4.05
2022-11-24T19:53:41.610Z,4.43
2022-11-24T19:56:29.871Z,4.00
2022-11-24T19:58:57.989Z,4.75
2022-11-24T20:01:34.101Z,4.45
2022-11-24T20:04:06.975Z,3.83
2022-11-24T20:06:36.893Z,3.95
2022-11-24T20:09:06.092Z,4.07
2022-11-24T20:11:34.343Z,4.30
2022-11-24T20:14:02.006Z,3.80
2022-11-24T20:16:32.100Z,3.85
2022-11-24T20:19:01.471Z,3.75
2022-11-24T20:21:33.050Z,4.22
2022-11-24T20:24:10.765Z,3.90
2022-11-24T20:26:43.415Z,3.35
2022-11-24T20:29:13.376Z,3.92
2022-11-24T20:31:47.126Z,3.40
2022-11-24T20:34:14.856Z,4.80
2022-11-24T20:36:44.804Z,3.90
2022-11-24T20:39:17.076Z,3.70
2022-11-24T20:41:44.483Z,4.10
2022-11-24T20:44:15.572Z,4.00
2022-11-24T20:46:44.258Z,3.20
2022-11-24T20:49:18.608Z,4.00
2022-11-24T20:51:54.339Z,3.47
2022-11-24T20:54:21.950Z,4.40
2022-11-24T20:56:49.121Z,4.32
2022-11-24T20:59:22.110Z,4.57
2022-11-24T21:01:52.020Z,3.22
2022-11-24T21:04:23.451Z,3.78
2022-11-24T21:06:50.798Z,4.40
2022-11-24T21:09:18.075Z,5.93
2022-11-24T21:11:46.684Z,3.95
2022-11-24T21:14:15.094Z,3.83
2022-11-24T21:16:45.177Z,3.83
2022-11-24T21:19:18.647Z,4.00
2022-11-24T21:21:48.748Z,3.70
2022-11-24T21:24:19.331Z,3.83
2022-11-24T21:26:51.734Z,4.45
2022-11-24T21:29:21.850Z,3.42
2022-11-24T21:31:50.070Z,4.15
2022-11-24T21:34:20.821Z,4.38
2022-11-24T21:36:48.102Z,3.60
2022-11-24T21:39:16.059Z,2.47
2022-11-24T21:41:43.663Z,2.88
2022-11-24T21:44:13.495Z,3.35
2022-11-24T21:46:46.138Z,3.03
2022-11-24T21:49:16.649Z,3.70
2022-11-24T21:51:44.724Z,3.70
2022-11-24T21:54:11.704Z,3.63
2022-11-24T21:56:38.554Z,3.22
2022-11-24T21:59:05.695Z,3.50
2022-11-24T22:01:33.665Z,2.95
2022-11-24T22:04:01.733Z,3.55
2022-11-24T22:06:29.597Z,3.05
2022-11-24T22:08:56.511Z,3.58
2022-11-24T22:11:25.075Z,3.15
2022-11-24T22:13:55.857Z,3.25
2022-11-24T22:16:24.286Z,2.42
2022-11-24T22:18:52.774Z,3.65
2022-11-24T22:21:23.836Z,3.63
2022-11-24T22:23:52.753Z,3.85
2022-11-24T22:26:22.011Z,3.28
2022-11-24T22:28:51.276Z,3.22
2022-11-24T22:31:30.847Z,3.58
2022-11-24T22:34:00.273Z,3.30
2022-11-24T22:36:30.504Z,3.20
2022-11-24T22:39:03.282Z,3.55
2022-11-24T22:41:31.994Z,3.53
2022-11-24T22:44:00.174Z,3.13
2022-11-24T22:46:30.761Z,2.72
2022-11-24T22:49:01.928Z,3.90
2022-11-24T22:51:33.455Z,3.63
2022-11-24T22:54:03.543Z,4.30
2022-11-24T22:56:32.598Z,3.70
2022-11-24T22:59:04.611Z,3.00
2022-11-24T23:01:36.529Z,3.03
2022-11-24T23:04:03.916Z,2.70
2022-11-24T23:06:34.399Z,2.83
2022-11-24T23:09:03.616Z,3.85
2022-11-24T23:11:38.216Z,3.53
2022-11-24T23:14:13.475Z,3.25
2022-11-24T23:16:42.285Z,3.38
2022-11-24T23:19:11.248Z,3.22
2022-11-24T23:21:39.585Z,3.78
2022-11-24T23:24:08.564Z,3.45
2022-11-24T23:26:38.711Z,3.08
2022-11-24T23:29:06.807Z,3.13
2022-11-24T23:31:34.279Z,2.85
2022-11-24T23:34:03.876Z,2.85
2022-11-24T23:36:32.723Z,3.10
2022-11-24T23:39:08.597Z,3.55
2022-11-24T23:41:36.670Z,3.55
2022-11-24T23:44:05.067Z,3.00
2022-11-24T23:46:33.774Z,3.10
2022-11-24T23:49:01.681Z,3.65
2022-11-24T23:51:32.077Z,3.22
2022-11-24T23:54:00.848Z,3.58
2022-11-24T23:56:33.050Z,3.13
2022-11-24T23:59:02.561Z,3.50
